Time;durP1;ratioP1;P1;durP2;ratioP2;P2;SDS_P1;SDS_P2;PMS_P1;PMS_P2;Temp;Humidity;BMP_temperature;BMP_pressure;BME280_temperature;BME280_humidity;BME280_pressure;Samples;Min_cycle;Max_cycle;Signal;HPM_P1;HPM_P2
2022/10/10 00:01:25;;;;;;;8.13;2.47;;;;;;;;;;4972404;28;20077;-65
2022/10/10 00:03:51;;;;;;;10.93;3.25;;;;;;;;;;4982674;28;20033;-65
2022/10/10 00:06:16;;;;;;;18.58;2.63;;;;;;;;;;4991721;28;20018;-64
2022/10/10 00:08:41;;;;;;;12.05;3.40;;;;;;;;;;4982305;28;20113;-64
2022/10/10 00:11:07;;;;;;;12.32;3.63;;;;;;;;;;4980389;28;20019;-66
2022/10/10 00:13:32;;;;;;;9.88;3.08;;;;;;;;;;4983742;28;20487;-65
2022/10/10 00:15:58;;;;;;;14.70;3.60;;;;;;;;;;4983849;28;20493;-66
2022/10/10 00:18:23;;;;;;;13.05;3.28;;;;;;;;;;4985795;28;20512;-65
2022/10/10 00:20:51;;;;;;;14.57;3.67;;;;;;;;;;4981155;28;20129;-66
2022/10/10 00:23:17;;;;;;;8.52;2.75;;;;;;;;;;4963877;28;20023;-67
2022/10/10 00:25:42;;;;;;;15.02;3.13;;;;;;;;;;4956224;28;20045;-66
2022/10/10 00:28:08;;;;;;;10.02;2.97;;;;;;;;;;4979511;28;20026;-65
2022/10/10 00:30:33;;;;;;;7.45;2.88;;;;;;;;;;4989508;28;20113;-66
2022/10/10 00:32:59;;;;;;;8.27;2.90;;;;;;;;;;4987798;28;20066;-64
2022/10/10 00:35:24;;;;;;;9.27;2.85;;;;;;;;;;4986633;28;20126;-64
2022/10/10 00:37:49;;;;;;;26.00;3.63;;;;;;;;;;4982733;28;20488;-65
2022/10/10 00:40:15;;;;;;;8.65;2.90;;;;;;;;;;4980069;28;20015;-63
2022/10/10 00:42:40;;;;;;;7.07;2.70;;;;;;;;;;4985194;28;20484;-64
2022/10/10 00:45:17;;;;;;;13.88;3.28;;;;;;;;;;4978629;28;20029;-64
2022/10/10 00:47:42;;;;;;;12.55;3.15;;;;;;;;;;4972668;28;20027;-65
2022/10/10 00:50:07;;;;;;;14.35;3.65;;;;;;;;;;4976298;28;20380;-65
2022/10/10 00:52:33;;;;;;;10.38;3.30;;;;;;;;;;4978255;28;20027;-66
2022/10/10 00:54:58;;;;;;;14.18;2.95;;;;;;;;;;4976551;28;20054;-64
2022/10/10 00:57:23;;;;;;;8.38;3.50;;;;;;;;;;4986273;28;20025;-66
2022/10/10 00:59:49;;;;;;;13.02;4.30;;;;;;;;;;4982144;28;20045;-65
2022/10/10 01:02:14;;;;;;;18.92;3.65;;;;;;;;;;4976102;28;20023;-67
2022/10/10 01:04:40;;;;;;;8.32;3.08;;;;;;;;;;4985147;28;20026;-65
2022/10/10 01:07:07;;;;;;;7.80;3.33;;;;;;;;;;4991050;28;20030;-64
2022/10/10 01:09:34;;;;;;;10.82;3.10;;;;;;;;;;4974149;28;20436;-66
2022/10/10 01:12:22;;;;;;;8.98;3.47;;;;;;;;;;4981513;28;20061;-65
2022/10/10 01:14:50;;;;;;;12.75;3.47;;;;;;;;;;4937636;28;20092;-64
2022/10/10 01:17:26;;;;;;;16.80;3.58;;;;;;;;;;4979831;28;20471;-64
2022/10/10 01:20:09;;;;;;;9.00;3.15;;;;;;;;;;4988684;28;20061;-66
2022/10/10 01:22:55;;;;;;;13.50;3.75;;;;;;;;;;4980477;28;20476;-64
2022/10/10 01:25:48;;;;;;;14.90;3.47;;;;;;;;;;4990017;28;20465;-67
2022/10/10 01:28:19;;;;;;;9.93;3.28;;;;;;;;;;4978379;28;20117;-66
2022/10/10 01:30:45;;;;;;;17.13;3.63;;;;;;;;;;4989346;28;20133;-66
2022/10/10 01:33:13;;;;;;;13.65;3.35;;;;;;;;;;4982312;28;20019;-64
2022/10/10 01:35:45;;;;;;;8.83;2.80;;;;;;;;;;4980054;28;20073;-65
2022/10/10 01:38:13;;;;;;;10.82;3.00;;;;;;;;;;4981269;28;20033;-66
2022/10/10 01:40:44;;;;;;;10.88;3.58;;;;;;;;;;4985421;28;20014;-65
2022/10/10 01:43:10;;;;;;;11.15;3.25;;;;;;;;;;4983263;28;20077;-65
2022/10/10 01:45:35;;;;;;;13.75;3.78;;;;;;;;;;4974007;28;20026;-67
2022/10/10 01:48:01;;;;;;;17.92;3.22;;;;;;;;;;4981027;28;20028;-64
2022/10/10 01:50:27;;;;;;;11.27;3.72;;;;;;;;;;4976662;28;20466;-66
2022/10/10 01:53:05;;;;;;;11.27;3.42;;;;;;;;;;4981150;28;20054;-65
2022/10/10 01:55:33;;;;;;;12.80;3.40;;;;;;;;;;4976536;28;20417;-64
2022/10/10 01:58:13;;;;;;;20.03;3.57;;;;;;;;;;4978351;28;20019;-64
2022/10/10 02:00:44;;;;;;;12.60;3.55;;;;;;;;;;4977633;28;20022;-63
2022/10/10 02:03:12;;;;;;;12.80;3.47;;;;;;;;;;4963260;28;20057;-63
2022/10/10 02:05:41;;;;;;;16.88;6.68;;;;;;;;;;4975735;28;20438;-64
2022/10/10 02:08:08;;;;;;;19.57;7.97;;;;;;;;;;4986033;28;20109;-64
2022/10/10 02:10:35;;;;;;;25.65;8.82;;;;;;;;;;4980712;28;20261;-65
2022/10/10 02:13:02;;;;;;;18.10;7.78;;;;;;;;;;4953564;28;20015;-64
2022/10/10 02:15:30;;;;;;;26.02;6.57;;;;;;;;;;4962936;28;20026;-65
2022/10/10 02:17:56;;;;;;;17.83;5.55;;;;;;;;;;4977332;28;20053;-64
2022/10/10 02:20:23;;;;;;;11.30;4.40;;;;;;;;;;4987710;28;20535;-65
2022/10/10 02:22:50;;;;;;;12.05;4.75;;;;;;;;;;4980811;28;20025;-64
2022/10/10 02:25:16;;;;;;;11.85;4.03;;;;;;;;;;4979756;28;20365;-64
2022/10/10 02:27:52;;;;;;;11.27;4.07;;;;;;;;;;4979659;28;20026;-64
2022/10/10 02:30:18;;;;;;;17.65;4.72;;;;;;;;;;4955909;28;20035;-63
2022/10/10 02:32:46;;;;;;;21.15;3.80;;;;;;;;;;4975632;28;20029;-65
2022/10/10 02:35:16;;;;;;;13.05;4.28;;;;;;;;;;4982977;28;20023;-65
2022/10/10 02:37:43;;;;;;;9.18;3.65;;;;;;;;;;4980596;28;20022;-65
2022/10/10 02:40:09;;;;;;;10.35;3.95;;;;;;;;;;4992319;28;20108;-64
2022/10/10 02:42:35;;;;;;;10.35;3.45;;;;;;;;;;4981861;28;20076;-65
2022/10/10 02:45:01;;;;;;;15.57;3.53;;;;;;;;;;4992936;28;20514;-66
2022/10/10 02:47:26;;;;;;;12.07;3.22;;;;;;;;;;4984887;28;20066;-65
2022/10/10 02:49:52;;;;;;;10.98;3.40;;;;;;;;;;4987129;28;20026;-64
2022/10/10 02:52:17;;;;;;;11.10;3.15;;;;;;;;;;4988355;28;20023;-65
2022/10/10 02:54:42;;;;;;;7.68;2.95;;;;;;;;;;4976146;28;20031;-65
2022/10/10 02:57:07;;;;;;;12.43;4.10;;;;;;;;;;4983572;28;20030;-63
2022/10/10 02:59:33;;;;;;;9.45;3.90;;;;;;;;;;4985952;28;20034;-65
2022/10/10 03:01:58;;;;;;;19.50;4.05;;;;;;;;;;4987159;28;20034;-64
2022/10/10 03:04:23;;;;;;;12.90;3.65;;;;;;;;;;4957042;28;20046;-63
2022/10/10 03:06:48;;;;;;;11.98;3.28;;;;;;;;;;4963958;28;20048;-64
2022/10/10 03:09:14;;;;;;;7.30;2.92;;;;;;;;;;4982940;28;20026;-65
2022/10/10 03:11:39;;;;;;;15.23;3.75;;;;;;;;;;4987098;28;20031;-66
2022/10/10 03:14:04;;;;;;;12.90;4.80;;;;;;;;;;4984624;28;20026;-65
2022/10/10 03:16:29;;;;;;;9.35;4.03;;;;;;;;;;4980066;28;20014;-64
2022/10/10 03:18:54;;;;;;;7.70;3.13;;;;;;;;;;4983263;28;20038;-65
2022/10/10 03:21:20;;;;;;;15.88;3.75;;;;;;;;;;4989794;28;20029;-64
2022/10/10 03:23:45;;;;;;;12.40;3.78;;;;;;;;;;4978148;28;20073;-66
2022/10/10 03:26:10;;;;;;;11.30;3.38;;;;;;;;;;4983180;28;20033;-64
2022/10/10 03:28:36;;;;;;;10.95;3.47;;;;;;;;;;4988434;28;20053;-65
2022/10/10 03:31:02;;;;;;;16.17;3.85;;;;;;;;;;4984377;28;20014;-64
2022/10/10 03:33:27;;;;;;;13.00;4.18;;;;;;;;;;4980941;28;20019;-63
2022/10/10 03:35:52;;;;;;;12.45;3.80;;;;;;;;;;4977602;28;20473;-64
2022/10/10 03:38:17;;;;;;;11.05;3.67;;;;;;;;;;4975243;28;20022;-65
2022/10/10 03:40:43;;;;;;;9.95;3.53;;;;;;;;;;4980427;28;20022;-66
2022/10/10 03:43:09;;;;;;;10.10;3.80;;;;;;;;;;4976300;28;20481;-65
2022/10/10 03:45:35;;;;;;;13.07;4.07;;;;;;;;;;4980142;28;20050;-65
2022/10/10 03:48:00;;;;;;;17.45;5.47;;;;;;;;;;4985322;28;20046;-66
2022/10/10 03:50:25;;;;;;;12.27;4.05;;;;;;;;;;4980548;28;20030;-64
2022/10/10 03:52:50;;;;;;;12.60;3.38;;;;;;;;;;4983261;28;20107;-66
2022/10/10 03:55:15;;;;;;;9.35;3.83;;;;;;;;;;4983342;28;20561;-64
2022/10/10 03:57:40;;;;;;;16.08;4.40;;;;;;;;;;4956171;28;20026;-67
2022/10/10 04:00:06;;;;;;;11.70;3.35;;;;;;;;;;4982179;28;20088;-65
2022/10/10 04:02:31;;;;;;;10.18;3.60;;;;;;;;;;4989109;28;20038;-68
2022/10/10 04:04:57;;;;;;;13.63;3.55;;;;;;;;;;4990403;28;20034;-64
2022/10/10 04:07:22;;;;;;;16.58;4.68;;;;;;;;;;4985893;28;20018;-65
2022/10/10 04:09:47;;;;;;;13.48;4.82;;;;;;;;;;4980016;28;20037;-63
2022/10/10 04:12:12;;;;;;;11.82;3.97;;;;;;;;;;4988168;28;20026;-65
2022/10/10 04:14:37;;;;;;;15.80;4.32;;;;;;;;;;4991330;28;20392;-65
2022/10/10 04:17:03;;;;;;;18.30;4.50;;;;;;;;;;4993456;28;20022;-67
2022/10/10 04:19:28;;;;;;;14.23;4.68;;;;;;;;;;4984107;28;20364;-65
2022/10/10 04:21:53;;;;;;;12.15;3.90;;;;;;;;;;4987326;28;20044;-64
2022/10/10 04:24:18;;;;;;;19.65;4.22;;;;;;;;;;4984260;28;20022;-64
2022/10/10 04:26:43;;;;;;;18.50;4.45;;;;;;;;;;4982651;28;20030;-65
2022/10/10 04:29:09;;;;;;;13.80;4.20;;;;;;;;;;4984819;28;20030;-66
2022/10/10 04:31:34;;;;;;;16.65;5.10;;;;;;;;;;4989664;28;20634;-66
2022/10/10 04:33:59;;;;;;;12.65;4.72;;;;;;;;;;4989594;28;20015;-67
2022/10/10 04:36:24;;;;;;;11.35;4.05;;;;;;;;;;4986728;28;20041;-65
2022/10/10 04:38:49;;;;;;;14.18;4.35;;;;;;;;;;4987270;28;20106;-65
2022/10/10 04:41:15;;;;;;;15.35;4.55;;;;;;;;;;4957078;28;20026;-65
2022/10/10 04:43:40;;;;;;;12.32;3.80;;;;;;;;;;4978107;28;20591;-65
2022/10/10 04:46:05;;;;;;;10.47;3.57;;;;;;;;;;4963439;28;20052;-66
2022/10/10 04:48:30;;;;;;;14.35;5.00;;;;;;;;;;4975463;28;20296;-67
2022/10/10 04:50:57;;;;;;;16.75;5.38;;;;;;;;;;4978579;28;20022;-64
2022/10/10 04:53:22;;;;;;;14.95;4.68;;;;;;;;;;4980688;28;20059;-65
2022/10/10 04:55:51;;;;;;;9.65;4.93;;;;;;;;;;4968116;28;20018;-73
2022/10/10 04:58:16;;;;;;;13.80;5.28;;;;;;;;;;4976763;28;20029;-66
2022/10/10 05:00:41;;;;;;;15.25;5.65;;;;;;;;;;4974893;28;20027;-67
2022/10/10 05:03:09;;;;;;;22.15;5.20;;;;;;;;;;4982959;28;20026;-65
2022/10/10 05:05:34;;;;;;;14.02;6.65;;;;;;;;;;4975209;28;20019;-66
2022/10/10 05:07:59;;;;;;;18.77;5.65;;;;;;;;;;4988557;28;20099;-67
2022/10/10 05:10:25;;;;;;;15.40;5.50;;;;;;;;;;4980422;28;20046;-65
2022/10/10 05:12:50;;;;;;;14.57;5.57;;;;;;;;;;4975891;28;20462;-65
2022/10/10 05:15:16;;;;;;;18.23;5.32;;;;;;;;;;4985355;28;20042;-68
2022/10/10 05:17:41;;;;;;;14.23;5.07;;;;;;;;;;4990513;28;20018;-64
2022/10/10 05:20:07;;;;;;;16.20;5.63;;;;;;;;;;4980090;28;20026;-67
2022/10/10 05:22:32;;;;;;;20.95;6.05;;;;;;;;;;4958664;28;20022;-67
2022/10/10 05:24:58;;;;;;;11.15;4.65;;;;;;;;;;4973352;28;20025;-66
2022/10/10 05:27:24;;;;;;;14.25;4.50;;;;;;;;;;4957085;28;20086;-64
2022/10/10 05:29:49;;;;;;;14.88;4.53;;;;;;;;;;4986635;28;20030;-67
2022/10/10 05:32:14;;;;;;;12.45;4.18;;;;;;;;;;4985971;28;20015;-67
2022/10/10 05:34:39;;;;;;;16.88;4.53;;;;;;;;;;4985514;28;20101;-66
2022/10/10 05:37:05;;;;;;;14.85;5.15;;;;;;;;;;4979220;28;20038;-66
2022/10/10 05:39:30;;;;;;;13.32;4.40;;;;;;;;;;4991143;28;20022;-66
2022/10/10 05:41:55;;;;;;;12.93;4.95;;;;;;;;;;4990831;28;20097;-67
2022/10/10 05:44:20;;;;;;;19.95;5.55;;;;;;;;;;4966752;28;20101;-68
2022/10/10 05:46:46;;;;;;;21.13;8.07;;;;;;;;;;4985265;28;20165;-65
2022/10/10 05:49:11;;;;;;;21.83;8.90;;;;;;;;;;4982161;28;20532;-66
2022/10/10 05:51:36;;;;;;;17.05;6.40;;;;;;;;;;4971975;28;20023;-66
2022/10/10 05:54:01;;;;;;;16.30;6.32;;;;;;;;;;4971868;28;20015;-66
2022/10/10 05:56:26;;;;;;;18.02;6.05;;;;;;;;;;4968543;28;20054;-66
2022/10/10 05:58:52;;;;;;;16.65;5.25;;;;;;;;;;4991721;28;20037;-65
2022/10/10 06:01:17;;;;;;;22.92;4.78;;;;;;;;;;4973548;28;20607;-67
2022/10/10 06:03:42;;;;;;;14.77;4.60;;;;;;;;;;4982646;28;20030;-66
2022/10/10 06:06:08;;;;;;;13.82;5.78;;;;;;;;;;4971163;28;20106;-65
2022/10/10 06:08:33;;;;;;;12.32;4.97;;;;;;;;;;4990071;28;20074;-66
2022/10/10 06:11:03;;;;;;;18.42;4.30;;;;;;;;;;4971418;28;20114;-66
2022/10/10 06:13:28;;;;;;;17.17;4.45;;;;;;;;;;4962182;28;20106;-65
2022/10/10 06:15:54;;;;;;;23.05;5.18;;;;;;;;;;4991089;28;20417;-66
2022/10/10 06:18:19;;;;;;;19.92;5.13;;;;;;;;;;4982244;28;20110;-66
2022/10/10 06:20:44;;;;;;;15.88;5.30;;;;;;;;;;4971650;28;20469;-68
2022/10/10 06:23:09;;;;;;;12.32;4.43;;;;;;;;;;4972147;28;20030;-66
2022/10/10 06:25:35;;;;;;;14.60;4.82;;;;;;;;;;4988836;28;20029;-66
2022/10/10 06:28:00;;;;;;;15.02;4.60;;;;;;;;;;4980710;28;20066;-67
2022/10/10 06:30:25;;;;;;;12.93;5.10;;;;;;;;;;4953877;28;20114;-66
2022/10/10 06:32:51;;;;;;;14.70;5.97;;;;;;;;;;4981577;28;20075;-67
2022/10/10 06:35:16;;;;;;;18.52;5.82;;;;;;;;;;4977144;28;20108;-66
2022/10/10 06:37:41;;;;;;;19.05;4.93;;;;;;;;;;4990603;28;20463;-67
2022/10/10 06:40:06;;;;;;;20.13;5.72;;;;;;;;;;4987242;28;20058;-66
2022/10/10 06:42:32;;;;;;;21.13;6.85;;;;;;;;;;4954748;28;20094;-66
2022/10/10 06:44:57;;;;;;;15.40;4.72;;;;;;;;;;4975617;28;20034;-67
2022/10/10 06:47:22;;;;;;;9.52;4.50;;;;;;;;;;4990555;28;20225;-68
2022/10/10 06:49:47;;;;;;;15.85;5.07;;;;;;;;;;4977796;28;20085;-65
2022/10/10 06:52:13;;;;;;;9.00;4.35;;;;;;;;;;4990610;28;20019;-65
2022/10/10 06:54:38;;;;;;;23.80;5.47;;;;;;;;;;4978130;28;20485;-65
2022/10/10 06:57:03;;;;;;;16.45;5.50;;;;;;;;;;4991034;28;20460;-66
2022/10/10 06:59:29;;;;;;;26.50;6.30;;;;;;;;;;4977707;28;20030;-65
2022/10/10 07:01:54;;;;;;;18.02;6.00;;;;;;;;;;4981305;28;20531;-65
2022/10/10 07:04:19;;;;;;;14.50;5.78;;;;;;;;;;4988259;28;20023;-66
2022/10/10 07:06:44;;;;;;;20.83;6.47;;;;;;;;;;4993854;28;20053;-67
2022/10/10 07:09:09;;;;;;;20.42;5.57;;;;;;;;;;4981503;28;20065;-66
2022/10/10 07:11:35;;;;;;;17.92;6.13;;;;;;;;;;4991070;28;20080;-68
2022/10/10 07:14:00;;;;;;;17.90;6.22;;;;;;;;;;4978097;28;20046;-67
2022/10/10 07:16:25;;;;;;;18.95;6.63;;;;;;;;;;4982198;28;20496;-67
2022/10/10 07:18:50;;;;;;;29.30;5.90;;;;;;;;;;4986122;28;20066;-66
2022/10/10 07:21:16;;;;;;;15.63;5.93;;;;;;;;;;4985030;28;20420;-67
2022/10/10 07:23:41;;;;;;;17.75;6.18;;;;;;;;;;4977154;28;20031;-67
2022/10/10 07:26:09;;;;;;;23.13;6.60;;;;;;;;;;4985428;28;20027;-67
2022/10/10 07:28:35;;;;;;;26.93;6.50;;;;;;;;;;4990144;28;20027;-67
2022/10/10 07:31:02;;;;;;;19.00;6.70;;;;;;;;;;4994631;28;20255;-67
2022/10/10 07:33:32;;;;;;;14.88;7.15;;;;;;;;;;4993622;28;20033;-65
2022/10/10 07:35:57;;;;;;;34.80;6.63;;;;;;;;;;4984341;28;20501;-65
2022/10/10 07:38:22;;;;;;;12.15;5.45;;;;;;;;;;4976618;28;20129;-65
2022/10/10 07:40:48;;;;;;;20.25;7.13;;;;;;;;;;4994017;28;20022;-66
2022/10/10 07:43:13;;;;;;;17.10;7.07;;;;;;;;;;4993835;28;20162;-67
2022/10/10 07:45:38;;;;;;;21.67;6.72;;;;;;;;;;4994448;28;20030;-66
2022/10/10 07:48:03;;;;;;;23.83;6.78;;;;;;;;;;4982251;28;20026;-66
2022/10/10 07:50:29;;;;;;;20.27;6.70;;;;;;;;;;4985471;28;20027;-66
2022/10/10 07:52:54;;;;;;;20.77;7.07;;;;;;;;;;4986728;28;20114;-66
2022/10/10 07:55:19;;;;;;;27.70;8.23;;;;;;;;;;4974969;28;20104;-67
2022/10/10 07:57:44;;;;;;;18.67;7.10;;;;;;;;;;4969802;28;20065;-67
2022/10/10 08:00:10;;;;;;;15.05;5.22;;;;;;;;;;4982324;28;20032;-66
2022/10/10 08:02:35;;;;;;;16.92;5.25;;;;;;;;;;4992281;28;20365;-67
2022/10/10 08:05:00;;;;;;;12.27;5.03;;;;;;;;;;4993250;28;20054;-67
2022/10/10 08:07:25;;;;;;;16.70;5.57;;;;;;;;;;5000804;28;20056;-67
2022/10/10 08:09:51;;;;;;;16.67;5.35;;;;;;;;;;4986240;28;20508;-68
2022/10/10 08:12:16;;;;;;;14.88;5.18;;;;;;;;;;4956409;28;20019;-66
2022/10/10 08:14:41;;;;;;;20.27;5.90;;;;;;;;;;4956230;28;20475;-68
2022/10/10 08:17:06;;;;;;;14.45;4.90;;;;;;;;;;4956853;28;20026;-66
2022/10/10 08:19:31;;;;;;;20.75;5.43;;;;;;;;;;4986128;28;20034;-68
2022/10/10 08:21:57;;;;;;;11.30;4.68;;;;;;;;;;4987219;28;20030;-67
2022/10/10 08:24:22;;;;;;;18.77;4.93;;;;;;;;;;4981740;28;20684;-67
2022/10/10 08:26:47;;;;;;;12.27;5.15;;;;;;;;;;4980030;28;20024;-67
2022/10/10 08:29:12;;;;;;;15.80;4.53;;;;;;;;;;4986969;28;20493;-70
2022/10/10 08:31:38;;;;;;;24.52;4.30;;;;;;;;;;4987151;28;20492;-68
2022/10/10 08:34:03;;;;;;;12.07;4.53;;;;;;;;;;4984933;28;20062;-66
2022/10/10 08:36:28;;;;;;;13.10;4.38;;;;;;;;;;4988518;28;20026;-66
2022/10/10 08:38:56;;;;;;;14.50;4.32;;;;;;;;;;4975219;28;20045;-65
2022/10/10 08:41:24;;;;;;;16.48;3.90;;;;;;;;;;4979735;28;20081;-68
2022/10/10 08:43:53;;;;;;;13.10;4.85;;;;;;;;;;4992160;28;20509;-65
2022/10/10 08:46:32;;;;;;;11.55;4.30;;;;;;;;;;4974449;28;20110;-69
2022/10/10 08:48:59;;;;;;;12.95;3.80;;;;;;;;;;4992178;28;20053;-67
2022/10/10 08:51:27;;;;;;;11.30;4.13;;;;;;;;;;4989297;28;20066;-64
2022/10/10 08:53:53;;;;;;;12.77;4.38;;;;;;;;;;4983895;28;20046;-67
2022/10/10 08:56:22;;;;;;;13.88;5.43;;;;;;;;;;4988590;28;20078;-67
2022/10/10 08:58:50;;;;;;;17.20;4.95;;;;;;;;;;4984329;28;20157;-67
2022/10/10 09:01:19;;;;;;;13.93;4.05;;;;;;;;;;4979610;28;20022;-68
2022/10/10 09:03:46;;;;;;;18.58;4.20;;;;;;;;;;4992360;28;20069;-67
2022/10/10 09:06:16;;;;;;;15.27;3.90;;;;;;;;;;4991773;28;20046;-67
2022/10/10 09:08:47;;;;;;;16.98;4.43;;;;;;;;;;4986563;28;20133;-67
2022/10/10 09:11:21;;;;;;;15.68;4.03;;;;;;;;;;4979195;28;20088;-65
2022/10/10 09:13:58;;;;;;;13.07;4.68;;;;;;;;;;4979710;28;20019;-67
2022/10/10 09:16:23;;;;;;;11.05;3.95;;;;;;;;;;4983445;28;20015;-68
2022/10/10 09:18:58;;;;;;;12.48;3.67;;;;;;;;;;4985817;28;20088;-67
2022/10/10 09:21:26;;;;;;;21.88;4.82;;;;;;;;;;4972659;28;20762;-67
2022/10/10 09:23:59;;;;;;;14.52;3.65;;;;;;;;;;4976224;28;20456;-66
2022/10/10 09:26:26;;;;;;;9.55;3.40;;;;;;;;;;4992568;28;20034;-67
2022/10/10 09:29:00;;;;;;;15.63;3.95;;;;;;;;;;4983054;28;20708;-66
2022/10/10 09:31:34;;;;;;;12.93;3.97;;;;;;;;;;4991566;28;20022;-65
2022/10/10 09:34:02;;;;;;;17.08;3.88;;;;;;;;;;4985659;28;20527;-65
2022/10/10 09:36:33;;;;;;;17.13;3.80;;;;;;;;;;4986132;28;20033;-68
2022/10/10 09:39:00;;;;;;;18.38;4.35;;;;;;;;;;4985998;28;20023;-65
2022/10/10 09:41:34;;;;;;;13.23;4.03;;;;;;;;;;4987117;28;20054;-68
2022/10/10 09:44:01;;;;;;;12.27;3.95;;;;;;;;;;4995566;28;20022;-67
2022/10/10 09:46:26;;;;;;;14.70;3.75;;;;;;;;;;4977860;28;20389;-68
2022/10/10 09:48:52;;;;;;;28.70;4.55;;;;;;;;;;4991120;28;20026;-65
2022/10/10 09:51:18;;;;;;;14.18;4.80;;;;;;;;;;4989367;28;20469;-66
2022/10/10 09:53:44;;;;;;;14.40;3.92;;;;;;;;;;4981118;28;20022;-67
2022/10/10 09:56:17;;;;;;;11.57;3.83;;;;;;;;;;4978432;28;20541;-68
2022/10/10 09:58:43;;;;;;;12.50;4.10;;;;;;;;;;4982269;28;20090;-65
2022/10/10 10:01:13;;;;;;;20.08;4.43;;;;;;;;;;4988204;28;20023;-68
2022/10/10 10:03:39;;;;;;;14.32;3.50;;;;;;;;;;4991669;28;20057;-65
2022/10/10 10:06:04;;;;;;;13.13;3.38;;;;;;;;;;4991021;28;20094;-68
2022/10/10 10:08:30;;;;;;;17.08;4.32;;;;;;;;;;4988183;28;20448;-68
2022/10/10 10:10:58;;;;;;;11.15;3.60;;;;;;;;;;4985386;28;20092;-68
2022/10/10 10:13:29;;;;;;;11.00;4.13;;;;;;;;;;4983032;28;20052;-66
2022/10/10 10:16:12;;;;;;;14.07;3.67;;;;;;;;;;4970093;28;20023;-68
2022/10/10 10:18:45;;;;;;;15.35;4.18;;;;;;;;;;4984837;28;20049;-67
2022/10/10 10:21:15;;;;;;;13.43;4.57;;;;;;;;;;4971803;28;20031;-66
2022/10/10 10:23:42;;;;;;;9.88;4.32;;;;;;;;;;4973563;28;20046;-66
2022/10/10 10:26:14;;;;;;;18.80;5.03;;;;;;;;;;4973418;28;20412;-68
2022/10/10 10:28:39;;;;;;;12.68;4.70;;;;;;;;;;4977711;28;20042;-66
2022/10/10 10:31:05;;;;;;;6.68;3.50;;;;;;;;;;4982301;28;20034;-67
2022/10/10 10:33:41;;;;;;;15.65;4.45;;;;;;;;;;4985407;28;20027;-68
2022/10/10 10:36:24;;;;;;;16.23;4.57;;;;;;;;;;4982767;28;20014;-69
2022/10/10 10:38:56;;;;;;;11.98;4.20;;;;;;;;;;4978430;28;20019;-67
2022/10/10 10:41:32;;;;;;;11.23;4.15;;;;;;;;;;4973796;28;20046;-67
2022/10/10 10:44:00;;;;;;;17.27;4.20;;;;;;;;;;4973494;28;20034;-65
2022/10/10 10:46:40;;;;;;;18.00;4.30;;;;;;;;;;4977067;28;20031;-65
2022/10/10 10:49:19;;;;;;;16.42;4.10;;;;;;;;;;4990225;28;20058;-67
2022/10/10 10:51:56;;;;;;;21.70;4.32;;;;;;;;;;4990466;28;20018;-68
2022/10/10 10:54:31;;;;;;;13.48;3.92;;;;;;;;;;4977678;28;20023;-67
2022/10/10 10:57:01;;;;;;;15.82;3.65;;;;;;;;;;4987301;28;20053;-67
2022/10/10 10:59:35;;;;;;;16.40;4.93;;;;;;;;;;4991037;28;20014;-68
2022/10/10 11:02:06;;;;;;;12.20;4.95;;;;;;;;;;4967669;28;20022;-67
2022/10/10 11:04:57;;;;;;;15.75;4.03;;;;;;;;;;4990899;28;20098;-67
2022/10/10 11:07:25;;;;;;;10.23;4.25;;;;;;;;;;5001356;28;20018;-66
2022/10/10 11:09:50;;;;;;;11.02;3.90;;;;;;;;;;4982585;28;20496;-69
2022/10/10 11:12:28;;;;;;;12.23;4.60;;;;;;;;;;4994168;28;20033;-66
2022/10/10 11:14:53;;;;;;;14.38;3.65;;;;;;;;;;4957881;28;20639;-67
2022/10/10 11:17:21;;;;;;;24.17;4.97;;;;;;;;;;4959939;28;20501;-69
2022/10/10 11:19:55;;;;;;;13.35;4.45;;;;;;;;;;4994584;28;20267;-66
2022/10/10 11:22:23;;;;;;;12.77;4.07;;;;;;;;;;4972906;28;20035;-69
2022/10/10 11:24:55;;;;;;;12.13;4.72;;;;;;;;;;4985688;28;20068;-68
2022/10/10 11:27:27;;;;;;;15.20;4.20;;;;;;;;;;4974883;28;20082;-67
2022/10/10 11:29:52;;;;;;;13.07;3.80;;;;;;;;;;4991111;28;20495;-66
2022/10/10 11:32:25;;;;;;;13.90;5.18;;;;;;;;;;4981914;28;20030;-68
2022/10/10 11:34:59;;;;;;;14.00;4.68;;;;;;;;;;4987758;28;20050;-67
2022/10/10 11:37:26;;;;;;;16.88;5.13;;;;;;;;;;4993481;28;20072;-66
2022/10/10 11:39:55;;;;;;;10.60;4.50;;;;;;;;;;4993083;28;20053;-67
2022/10/10 11:42:47;;;;;;;11.68;4.35;;;;;;;;;;4982743;28;20022;-66
2022/10/10 11:45:14;;;;;;;9.07;3.92;;;;;;;;;;4992152;28;20582;-66
2022/10/10 11:47:43;;;;;;;13.13;4.07;;;;;;;;;;4982218;28;20126;-67
2022/10/10 11:50:14;;;;;;;23.65;4.18;;;;;;;;;;4987079;28;20038;-66
2022/10/10 11:52:42;;;;;;;16.15;4.57;;;;;;;;;;4987358;28;20069;-69
2022/10/10 11:55:07;;;;;;;11.77;3.97;;;;;;;;;;4974735;28;20433;-66
2022/10/10 11:57:37;;;;;;;19.42;3.78;;;;;;;;;;4986857;28;20126;-67
2022/10/10 12:00:06;;;;;;;10.80;3.40;;;;;;;;;;4974647;28;20248;-68
2022/10/10 12:02:33;;;;;;;9.45;3.42;;;;;;;;;;4988584;28;20030;-66
2022/10/10 12:04:58;;;;;;;28.98;4.07;;;;;;;;;;4991855;28;20038;-67
2022/10/10 12:07:23;;;;;;;18.42;3.67;;;;;;;;;;4998969;28;20029;-67
2022/10/10 12:09:51;;;;;;;11.95;4.03;;;;;;;;;;4981636;28;20034;-68
2022/10/10 12:12:37;;;;;;;13.95;3.92;;;;;;;;;;4992199;28;20469;-65
2022/10/10 12:15:04;;;;;;;8.75;3.88;;;;;;;;;;4983964;28;20023;-66
2022/10/10 12:17:34;;;;;;;11.35;4.03;;;;;;;;;;4980448;28;20065;-66
2022/10/10 12:20:09;;;;;;;15.27;3.88;;;;;;;;;;4975693;28;20030;-66
2022/10/10 12:22:34;;;;;;;14.18;4.68;;;;;;;;;;4974282;28;20374;-68
2022/10/10 12:25:06;;;;;;;15.10;3.33;;;;;;;;;;4986838;28;20125;-66
2022/10/10 12:27:57;;;;;;;14.38;3.70;;;;;;;;;;4974138;28;20023;-66
2022/10/10 12:30:23;;;;;;;12.85;4.00;;;;;;;;;;4956906;28;20109;-65
2022/10/10 12:32:51;;;;;;;14.25;4.28;;;;;;;;;;4983507;28;20034;-66
2022/10/10 12:35:31;;;;;;;15.18;3.78;;;;;;;;;;4988608;28;20023;-66
2022/10/10 12:38:10;;;;;;;16.85;4.00;;;;;;;;;;4985197;28;20030;-68
2022/10/10 12:40:54;;;;;;;14.50;4.07;;;;;;;;;;4985534;28;20031;-67
2022/10/10 12:43:21;;;;;;;16.45;4.55;;;;;;;;;;4987484;28;20050;-66
2022/10/10 12:46:05;;;;;;;18.50;4.65;;;;;;;;;;4984224;28;20029;-65
2022/10/10 12:48:30;;;;;;;12.27;3.83;;;;;;;;;;4979975;28;20356;-68
2022/10/10 12:50:57;;;;;;;13.20;4.43;;;;;;;;;;4993264;28;20023;-67
2022/10/10 12:53:25;;;;;;;16.33;3.22;;;;;;;;;;4992696;28;20627;-68
2022/10/10 12:55:52;;;;;;;10.45;3.75;;;;;;;;;;4993441;28;20153;-66
2022/10/10 12:58:28;;;;;;;13.10;4.28;;;;;;;;;;4979611;28;20706;-69
2022/10/10 13:00:55;;;;;;;10.07;3.97;;;;;;;;;;4993141;28;20050;-66
2022/10/10 13:03:24;;;;;;;13.65;4.60;;;;;;;;;;4980824;28;20029;-68
2022/10/10 13:05:50;;;;;;;10.13;3.65;;;;;;;;;;4986783;28;20073;-68
2022/10/10 13:08:17;;;;;;;12.80;3.90;;;;;;;;;;4973676;28;20034;-67
2022/10/10 13:10:59;;;;;;;20.77;4.78;;;;;;;;;;4987464;28;20113;-69
2022/10/10 13:13:24;;;;;;;15.30;3.83;;;;;;;;;;4992904;28;20026;-67
2022/10/10 13:15:50;;;;;;;19.97;4.20;;;;;;;;;;4975657;28;20508;-70
2022/10/10 13:18:31;;;;;;;20.23;4.20;;;;;;;;;;4981406;28;20257;-68
2022/10/10 13:20:56;;;;;;;14.00;3.55;;;;;;;;;;4990764;28;20423;-69
2022/10/10 13:23:21;;;;;;;8.95;3.83;;;;;;;;;;4992812;28;20052;-69
2022/10/10 13:25:46;;;;;;;11.83;3.97;;;;;;;;;;4985997;28;20134;-66
2022/10/10 13:28:16;;;;;;;11.70;3.40;;;;;;;;;;4984196;28;20260;-67
2022/10/10 13:30:41;;;;;;;16.50;3.40;;;;;;;;;;4992548;28;20275;-67
2022/10/10 13:33:13;;;;;;;15.82;3.00;;;;;;;;;;4979879;28;20109;-68
2022/10/10 13:35:38;;;;;;;10.27;3.40;;;;;;;;;;4991564;28;20030;-66
2022/10/10 13:38:04;;;;;;;11.23;3.33;;;;;;;;;;4981754;28;20023;-68
2022/10/10 13:40:29;;;;;;;10.02;3.92;;;;;;;;;;4979934;28;20048;-70
2022/10/10 13:42:55;;;;;;;14.45;3.78;;;;;;;;;;4979843;28;20500;-66
2022/10/10 13:45:23;;;;;;;13.05;3.47;;;;;;;;;;4990047;28;20038;-66
2022/10/10 13:47:54;;;;;;;17.15;3.25;;;;;;;;;;4978284;28;20101;-67
2022/10/10 13:50:21;;;;;;;14.48;4.05;;;;;;;;;;4960944;28;20098;-65
2022/10/10 13:52:46;;;;;;;8.88;3.50;;;;;;;;;;4978088;28;20019;-66
2022/10/10 13:55:22;;;;;;;13.85;3.60;;;;;;;;;;4991793;28;20029;-67
2022/10/10 13:57:50;;;;;;;12.85;3.85;;;;;;;;;;4979513;28;20034;-69
2022/10/10 14:00:17;;;;;;;14.80;3.78;;;;;;;;;;4973992;28;20046;-65
2022/10/10 14:02:44;;;;;;;14.85;3.67;;;;;;;;;;4991526;28;20481;-69
2022/10/10 14:05:26;;;;;;;10.52;3.25;;;;;;;;;;4983178;28;20029;-66
2022/10/10 14:07:51;;;;;;;18.42;4.43;;;;;;;;;;4987944;28;20488;-68
2022/10/10 14:10:22;;;;;;;9.48;3.50;;;;;;;;;;4989206;28;20081;-67
2022/10/10 14:12:51;;;;;;;8.77;3.25;;;;;;;;;;4978432;28;20113;-67
2022/10/10 14:15:32;;;;;;;15.10;3.60;;;;;;;;;;4988718;28;20018;-70
2022/10/10 14:17:57;;;;;;;7.90;3.20;;;;;;;;;;4974493;28;20038;-68
2022/10/10 14:20:22;;;;;;;12.88;3.60;;;;;;;;;;4983256;28;20430;-68
2022/10/10 14:22:49;;;;;;;13.82;3.92;;;;;;;;;;4981002;28;20420;-67
2022/10/10 14:25:14;;;;;;;9.32;3.00;;;;;;;;;;4982282;28;20045;-67
2022/10/10 14:27:39;;;;;;;16.60;3.37;;;;;;;;;;4986629;28;20340;-67
2022/10/10 14:30:05;;;;;;;9.43;3.10;;;;;;;;;;4979317;28;20288;-68
2022/10/10 14:32:30;;;;;;;13.38;3.58;;;;;;;;;;4975150;28;20018;-68
2022/10/10 14:34:55;;;;;;;15.75;3.83;;;;;;;;;;4980605;28;20027;-67